EGKB/BQH METAR and TAF weather

Enter ICAO airport designator
Station Type Date Time Source
EGKB METAR 2019/02/15 22:20 UTC NOAA

EGKB 152220Z 18012KT CAVOK 07/02 Q1024


Station Type Date Time Source
EGKB Decoded METAR 2019/02/15 22:20 UTC NOAA

Biggin Hill , United Kingdom (EGKB) 51-19N 000-02E
Feb 15, 2019 - 05:20 PM EST / 2019.02.15 2220 UTC
Wind: from the S (180 degrees) at 14 MPH (12 KT):0
Visibility: greater than 7 mile(s):0
Temperature: 44 F (7 C)
Dew Point: 35 F (2 C)
Relative Humidity: 70%
Pressure (altimeter): 30.24 in. Hg (1024 hPa)
ob: EGKB 152220Z 18012KT CAVOK 07/02 Q1024
cycle: 22

Station Type Date Time Source
EGKB TAF 2018/11/11 18:33 UTC NOAA

TAF EGKB 110723Z 1018/1121 CNL


Example: see airport list